createdAt,value
2022-09-13T00:00:37.234Z,14.50
2022-09-13T00:03:25.984Z,14.50
2022-09-13T00:06:15.155Z,14.40
2022-09-13T00:09:02.181Z,14.40
2022-09-13T00:11:49.423Z,14.40
2022-09-13T00:14:36.265Z,14.30
2022-09-13T00:17:23.503Z,14.30
2022-09-13T00:20:11.988Z,14.30
2022-09-13T00:22:59.007Z,14.30
2022-09-13T00:25:46.090Z,14.30
2022-09-13T00:28:32.907Z,14.20
2022-09-13T00:31:21.718Z,14.20
2022-09-13T00:34:08.677Z,14.20
2022-09-13T00:36:57.280Z,14.10
2022-09-13T00:39:48.007Z,14.10
2022-09-13T00:42:37.575Z,14.00
2022-09-13T00:45:24.532Z,14.00
2022-09-13T00:48:21.163Z,14.00
2022-09-13T00:51:09.999Z,14.00
2022-09-13T00:54:00.953Z,14.00
2022-09-13T00:56:52.186Z,13.90
2022-09-13T00:59:43.815Z,13.90
2022-09-13T01:02:31.514Z,13.90
2022-09-13T01:05:22.086Z,13.80
2022-09-13T01:08:16.284Z,13.80
2022-09-13T01:11:08.004Z,13.80
2022-09-13T01:13:56.937Z,13.70
2022-09-13T01:16:47.765Z,13.70
2022-09-13T01:19:36.438Z,13.70
2022-09-13T01:22:41.049Z,13.70
2022-09-13T01:25:49.002Z,13.70
2022-09-13T01:28:55.436Z,13.70
2022-09-13T01:31:52.613Z,13.60
2022-09-13T01:34:55.950Z,13.60
2022-09-13T01:37:55.591Z,13.60
2022-09-13T01:41:04.521Z,13.60
2022-09-13T01:44:02.037Z,13.60
2022-09-13T01:47:00.090Z,13.50
2022-09-13T01:49:52.251Z,13.50
2022-09-13T01:52:46.915Z,13.50
2022-09-13T01:55:41.918Z,13.40
2022-09-13T01:58:36.285Z,13.40
2022-09-13T02:01:28.170Z,13.40
2022-09-13T02:04:22.877Z,13.40
2022-09-13T02:07:15.054Z,13.30
2022-09-13T02:10:07.756Z,13.30
2022-09-13T02:12:57.105Z,13.30
2022-09-13T02:15:48.761Z,13.20
2022-09-13T02:18:41.107Z,13.20
2022-09-13T02:21:33.166Z,13.20
2022-09-13T02:24:24.191Z,13.20
2022-09-13T02:27:16.287Z,13.10
2022-09-13T02:30:06.213Z,13.00
2022-09-13T02:32:57.414Z,13.00
2022-09-13T02:35:52.423Z,13.00
2022-09-13T02:38:45.404Z,13.00
2022-09-13T02:41:37.710Z,13.00
2022-09-13T02:44:29.632Z,12.90
2022-09-13T02:47:37.452Z,12.90
2022-09-13T02:50:38.003Z,12.90
2022-09-13T02:53:32.256Z,12.90
2022-09-13T02:56:26.613Z,12.90
2022-09-13T02:59:17.784Z,12.80
2022-09-13T03:02:08.234Z,12.80
2022-09-13T03:04:55.817Z,12.80
2022-09-13T03:07:43.128Z,12.80
2022-09-13T03:10:37.930Z,12.80
2022-09-13T03:13:38.972Z,12.80
2022-09-13T03:16:44.193Z,12.80
2022-09-13T03:19:50.378Z,12.70
2022-09-13T03:23:02.990Z,12.70
2022-09-13T03:25:49.578Z,12.70
2022-09-13T03:28:47.267Z,12.60
2022-09-13T03:31:38.013Z,12.60
2022-09-13T03:34:34.972Z,12.60
2022-09-13T03:37:28.683Z,12.60
2022-09-13T03:40:20.590Z,12.60
2022-09-13T03:43:14.643Z,12.60
2022-09-13T03:46:06.748Z,12.50
2022-09-13T03:48:55.834Z,12.60
2022-09-13T03:51:44.499Z,12.60
2022-09-13T03:54:33.534Z,12.50
2022-09-13T03:57:22.945Z,12.50
2022-09-13T04:00:15.306Z,12.50
2022-09-13T04:03:03.927Z,12.50
2022-09-13T04:05:51.085Z,12.40
2022-09-13T04:08:38.038Z,12.40
2022-09-13T04:11:25.115Z,12.40
2022-09-13T04:14:12.228Z,12.40
2022-09-13T04:16:59.666Z,12.40
2022-09-13T04:19:48.266Z,12.40
2022-09-13T04:22:35.180Z,12.40
2022-09-13T04:25:22.996Z,12.40
2022-09-13T04:28:10.074Z,12.30
2022-09-13T04:30:57.120Z,12.30
2022-09-13T04:33:44.280Z,12.30
2022-09-13T04:36:32.771Z,12.40
2022-09-13T04:39:20.316Z,12.30
2022-09-13T04:42:08.467Z,12.30
2022-09-13T04:44:55.863Z,12.30
2022-09-13T04:47:43.112Z,12.30
2022-09-13T04:50:29.980Z,12.20
2022-09-13T04:53:18.672Z,12.20
2022-09-13T04:56:07.616Z,12.30
2022-09-13T04:58:56.803Z,12.30
2022-09-13T05:01:44.599Z,12.20
2022-09-13T05:04:31.776Z,12.30
2022-09-13T05:07:18.673Z,12.20
2022-09-13T05:10:07.627Z,12.20
2022-09-13T05:12:54.725Z,12.30
2022-09-13T05:15:41.923Z,12.20
2022-09-13T05:18:29.686Z,12.20
2022-09-13T05:21:17.110Z,12.30
2022-09-13T05:24:04.170Z,12.30
2022-09-13T05:26:52.756Z,12.30
2022-09-13T05:29:40.131Z,12.30
2022-09-13T05:32:26.970Z,12.40
2022-09-13T05:35:14.063Z,12.40
2022-09-13T05:38:01.301Z,12.40
2022-09-13T05:40:49.319Z,12.40
2022-09-13T05:43:38.224Z,12.50
2022-09-13T05:46:25.605Z,12.50
2022-09-13T05:49:14.142Z,12.50
2022-09-13T05:52:01.193Z,12.60
2022-09-13T05:54:48.004Z,12.60
2022-09-13T05:57:35.005Z,12.60
2022-09-13T06:00:23.346Z,12.70
2022-09-13T06:03:10.452Z,12.70
2022-09-13T06:05:58.989Z,12.80
2022-09-13T06:08:46.319Z,12.80
2022-09-13T06:11:33.688Z,12.80
2022-09-13T06:14:20.788Z,12.90
2022-09-13T06:17:09.518Z,13.00
2022-09-13T06:19:57.088Z,13.10
2022-09-13T06:22:43.977Z,13.30
2022-09-13T06:25:31.189Z,13.40
2022-09-13T06:28:20.732Z,13.50
2022-09-13T06:31:10.598Z,13.60
2022-09-13T06:34:02.572Z,13.80
2022-09-13T06:36:49.491Z,13.90
2022-09-13T06:39:36.344Z,14.00
2022-09-13T06:42:23.328Z,14.20
2022-09-13T06:45:11.955Z,14.30
2022-09-13T06:47:58.873Z,14.50
2022-09-13T06:50:47.379Z,14.60
2022-09-13T06:53:36.535Z,14.80
2022-09-13T06:56:24.953Z,14.90
2022-09-13T06:59:12.338Z,15.00
2022-09-13T07:01:59.473Z,15.20
2022-09-13T07:04:46.345Z,15.40
2022-09-13T07:07:34.688Z,15.60
2022-09-13T07:10:21.683Z,15.70
2022-09-13T07:13:08.649Z,15.90
2022-09-13T07:15:55.840Z,16.10
2022-09-13T07:18:42.824Z,16.20
2022-09-13T07:21:30.390Z,16.40
2022-09-13T07:24:20.029Z,16.50
2022-09-13T07:27:07.248Z,16.70
2022-09-13T07:29:54.242Z,16.90
2022-09-13T07:32:42.822Z,17.10
2022-09-13T07:35:29.873Z,17.30
2022-09-13T07:38:16.848Z,17.40
2022-09-13T07:41:09.080Z,17.70
2022-09-13T07:43:56.360Z,17.90
2022-09-13T07:46:43.853Z,18.10
2022-09-13T07:49:30.949Z,18.30
2022-09-13T07:52:17.701Z,18.50
2022-09-13T07:55:04.830Z,18.60
2022-09-13T07:57:53.582Z,18.80
2022-09-13T08:00:40.794Z,19.00
2022-09-13T08:03:28.057Z,19.20
2022-09-13T08:06:15.037Z,19.30
2022-09-13T08:09:02.629Z,19.50
2022-09-13T08:11:53.232Z,19.80
2022-09-13T08:14:41.751Z,20.00
2022-09-13T08:17:28.682Z,20.20
2022-09-13T08:20:15.913Z,20.40
2022-09-13T08:23:03.140Z,20.70
2022-09-13T08:25:50.073Z,20.90
2022-09-13T08:28:38.034Z,21.10
2022-09-13T08:31:27.292Z,21.30
2022-09-13T08:34:15.720Z,21.40
2022-09-13T08:37:02.782Z,21.60
2022-09-13T08:39:49.751Z,21.70
2022-09-13T08:42:51.094Z,21.90
2022-09-13T08:45:38.367Z,22.10
2022-09-13T08:48:33.937Z,22.20
2022-09-13T08:51:33.409Z,22.30
2022-09-13T08:54:21.545Z,22.50
2022-09-13T08:57:15.210Z,22.60
2022-09-13T09:00:17.757Z,22.80
2022-09-13T09:03:20.131Z,23.00
2022-09-13T09:06:15.563Z,23.20
2022-09-13T09:09:09.012Z,23.40
2022-09-13T09:12:00.994Z,23.70
2022-09-13T09:14:58.530Z,23.80
2022-09-13T09:17:52.145Z,23.90
2022-09-13T09:20:44.100Z,23.90
2022-09-13T09:23:39.121Z,24.00
2022-09-13T09:26:29.430Z,24.10
2022-09-13T09:29:24.699Z,24.20
2022-09-13T09:32:26.537Z,24.40
2022-09-13T09:35:23.277Z,24.60
2022-09-13T09:38:31.708Z,24.70
2022-09-13T09:41:27.652Z,24.80
2022-09-13T09:44:20.463Z,25.00
2022-09-13T09:47:16.547Z,25.10
2022-09-13T09:50:12.011Z,25.20
2022-09-13T09:53:04.171Z,25.40
2022-09-13T09:55:59.427Z,25.50
2022-09-13T09:58:49.023Z,25.80
2022-09-13T10:01:40.116Z,25.90
2022-09-13T10:04:27.658Z,26.00
2022-09-13T10:07:29.669Z,26.20
2022-09-13T10:10:23.668Z,26.40
2022-09-13T10:13:17.583Z,26.60
2022-09-13T10:16:08.207Z,26.80
2022-09-13T10:18:55.836Z,27.00
2022-09-13T10:21:43.342Z,27.20
2022-09-13T10:24:30.941Z,27.30
2022-09-13T10:27:33.895Z,27.40
2022-09-13T10:30:34.189Z,27.50
2022-09-13T10:33:29.901Z,27.70
2022-09-13T10:36:35.271Z,27.70
2022-09-13T10:39:29.882Z,27.80
2022-09-13T10:42:23.697Z,27.80
2022-09-13T10:45:23.846Z,27.90
2022-09-13T10:48:15.452Z,28.00
2022-09-13T10:51:07.561Z,28.20
2022-09-13T10:54:10.527Z,28.30
2022-09-13T10:56:57.570Z,28.30
2022-09-13T10:59:53.778Z,28.40
2022-09-13T11:02:57.480Z,28.40
2022-09-13T11:05:51.071Z,28.50
2022-09-13T11:08:47.695Z,28.60
2022-09-13T11:11:40.154Z,28.70
2022-09-13T11:14:43.448Z,28.80
2022-09-13T11:17:44.707Z,29.00
2022-09-13T11:20:43.157Z,29.10
2022-09-13T11:23:58.650Z,29.30
2022-09-13T11:26:59.823Z,29.40
2022-09-13T11:30:01.488Z,29.50
2022-09-13T11:33:10.379Z,29.50
2022-09-13T11:36:22.522Z,29.50
2022-09-13T11:39:20.614Z,29.60
2022-09-13T11:42:23.654Z,29.70
2022-09-13T11:45:21.802Z,29.70
2022-09-13T11:48:21.679Z,29.70
2022-09-13T11:51:20.646Z,29.70
2022-09-13T11:54:24.004Z,29.70
2022-09-13T11:57:16.210Z,29.70
2022-09-13T12:00:08.004Z,29.70
2022-09-13T12:03:03.970Z,29.60
2022-09-13T12:05:55.129Z,29.60
2022-09-13T12:08:46.610Z,29.60
2022-09-13T12:11:37.694Z,29.50
2022-09-13T12:14:30.630Z,29.50
2022-09-13T12:17:25.960Z,29.50
2022-09-13T12:20:19.911Z,29.40
2022-09-13T12:23:16.214Z,29.50
2022-09-13T12:26:07.374Z,29.50
2022-09-13T12:28:59.507Z,29.50
2022-09-13T12:31:47.035Z,29.60
2022-09-13T12:34:41.998Z,29.70
2022-09-13T12:37:47.232Z,29.70
2022-09-13T12:40:52.717Z,29.70
2022-09-13T12:43:57.936Z,29.70
2022-09-13T12:47:09.991Z,29.80
2022-09-13T12:49:58.899Z,29.80
2022-09-13T12:53:03.741Z,29.90
2022-09-13T12:56:03.352Z,29.90
2022-09-13T12:59:15.570Z,30.00
2022-09-13T13:02:05.795Z,30.00
2022-09-13T13:04:57.564Z,30.00
2022-09-13T13:07:52.373Z,30.00
2022-09-13T13:10:40.432Z,30.00
2022-09-13T13:13:36.727Z,30.10
2022-09-13T13:16:28.897Z,30.20
2022-09-13T13:19:33.241Z,30.20
2022-09-13T13:22:50.060Z,30.20
2022-09-13T13:25:39.301Z,30.30
2022-09-13T13:28:56.001Z,30.30
2022-09-13T13:31:48.022Z,30.40
2022-09-13T13:34:42.415Z,30.40
2022-09-13T13:37:36.779Z,30.40
2022-09-13T13:40:27.172Z,30.40
2022-09-13T13:43:31.693Z,30.50
2022-09-13T13:46:29.443Z,30.50
2022-09-13T13:49:46.263Z,30.50
2022-09-13T13:52:39.057Z,30.60
2022-09-13T13:55:40.277Z,30.60
2022-09-13T13:58:48.354Z,30.60
2022-09-13T14:01:35.330Z,30.60
2022-09-13T14:04:54.629Z,30.60
2022-09-13T14:08:04.746Z,30.60
2022-09-13T14:10:52.845Z,30.60
2022-09-13T14:13:54.721Z,30.50
2022-09-13T14:16:58.834Z,30.60
2022-09-13T14:19:48.404Z,30.50
2022-09-13T14:22:36.872Z,30.50
2022-09-13T14:25:26.457Z,30.50
2022-09-13T14:28:19.165Z,30.40
2022-09-13T14:31:06.346Z,30.40
2022-09-13T14:33:54.189Z,30.40
2022-09-13T14:36:53.830Z,30.30
2022-09-13T14:39:56.106Z,30.30
2022-09-13T14:42:45.069Z,30.20
2022-09-13T14:45:36.926Z,30.20
2022-09-13T14:48:27.191Z,30.20
2022-09-13T14:51:19.438Z,30.20
2022-09-13T14:54:12.802Z,30.10
2022-09-13T14:57:04.278Z,30.00
2022-09-13T14:59:54.594Z,30.00
2022-09-13T15:02:43.412Z,30.00
2022-09-13T15:05:34.363Z,29.90
2022-09-13T15:08:39.115Z,29.90
2022-09-13T15:11:33.448Z,29.80
2022-09-13T15:14:28.549Z,29.70
2022-09-13T15:17:16.099Z,29.70
2022-09-13T15:20:06.900Z,29.60
2022-09-13T15:22:54.801Z,29.50
2022-09-13T15:25:41.939Z,29.40
2022-09-13T15:28:31.275Z,29.40
2022-09-13T15:31:27.040Z,29.30
2022-09-13T15:34:23.654Z,29.20
2022-09-13T15:37:13.034Z,29.10
2022-09-13T15:40:16.683Z,29.10
2022-09-13T15:43:03.815Z,29.00
2022-09-13T15:45:50.875Z,28.90
2022-09-13T15:48:47.214Z,28.80
2022-09-13T15:51:38.962Z,28.70
2022-09-13T15:54:33.285Z,28.50
2022-09-13T15:57:23.980Z,28.30
2022-09-13T16:00:16.015Z,28.10
2022-09-13T16:03:02.928Z,27.90
2022-09-13T16:05:51.579Z,27.70
2022-09-13T16:08:39.642Z,27.50
2022-09-13T16:11:27.039Z,27.40
2022-09-13T16:14:14.120Z,27.20
2022-09-13T16:17:04.244Z,27.10
2022-09-13T16:19:51.101Z,27.00
2022-09-13T16:22:39.423Z,26.80
2022-09-13T16:25:26.578Z,26.70
2022-09-13T16:28:20.157Z,26.60
2022-09-13T16:31:09.795Z,26.50
2022-09-13T16:33:56.886Z,26.50
2022-09-13T16:36:43.958Z,26.30
2022-09-13T16:39:32.286Z,26.20
2022-09-13T16:42:20.153Z,26.10
2022-09-13T16:45:08.439Z,26.00
2022-09-13T16:47:55.604Z,25.90
2022-09-13T16:50:43.279Z,25.80
2022-09-13T16:53:33.613Z,25.70
2022-09-13T16:56:24.573Z,25.70
2022-09-13T16:59:11.843Z,25.60
2022-09-13T17:01:58.968Z,25.50
2022-09-13T17:04:46.955Z,25.50
2022-09-13T17:07:34.358Z,25.40
2022-09-13T17:10:22.369Z,25.30
2022-09-13T17:13:12.161Z,25.20
2022-09-13T17:15:59.592Z,25.10
2022-09-13T17:18:46.766Z,25.10
2022-09-13T17:21:35.038Z,25.00
2022-09-13T17:24:22.155Z,25.00
2022-09-13T17:27:09.504Z,24.90
2022-09-13T17:29:58.062Z,24.80
2022-09-13T17:32:44.953Z,24.80
2022-09-13T17:35:32.186Z,24.70
2022-09-13T17:38:19.328Z,24.60
2022-09-13T17:41:08.884Z,24.50
2022-09-13T17:43:55.977Z,24.50
2022-09-13T17:46:44.762Z,24.40
2022-09-13T17:49:31.777Z,24.20
2022-09-13T17:52:18.788Z,24.10
2022-09-13T17:55:06.859Z,24.10
2022-09-13T17:57:55.551Z,24.00
2022-09-13T18:00:42.562Z,23.90
2022-09-13T18:03:31.848Z,23.80
2022-09-13T18:06:18.762Z,23.70
2022-09-13T18:09:06.512Z,23.60
2022-09-13T18:11:53.494Z,23.60
2022-09-13T18:14:40.884Z,23.50
2022-09-13T18:17:28.055Z,23.50
2022-09-13T18:20:16.778Z,23.40
2022-09-13T18:23:04.019Z,23.30
2022-09-13T18:26:02.961Z,23.20
2022-09-13T18:28:56.230Z,23.10
2022-09-13T18:31:44.010Z,23.00
2022-09-13T18:34:31.299Z,23.00
2022-09-13T18:37:19.542Z,22.90
2022-09-13T18:40:09.335Z,22.80
2022-09-13T18:42:57.240Z,22.80
2022-09-13T18:45:44.441Z,22.70
2022-09-13T18:48:32.976Z,22.60
2022-09-13T18:51:22.802Z,22.60
2022-09-13T18:54:16.338Z,22.60
2022-09-13T18:57:03.538Z,22.50
2022-09-13T18:59:50.697Z,22.40
2022-09-13T19:02:52.049Z,22.40
2022-09-13T19:05:45.362Z,22.40
2022-09-13T19:08:32.171Z,22.30
2022-09-13T19:11:45.297Z,22.20
2022-09-13T19:14:30.659Z,22.20
2022-09-13T19:17:17.864Z,22.20
2022-09-13T19:20:06.022Z,22.10
2022-09-13T19:22:53.791Z,22.00
2022-09-13T19:25:40.764Z,22.10
2022-09-13T19:28:29.213Z,22.00
2022-09-13T19:31:17.213Z,21.90
2022-09-13T19:34:06.328Z,21.90
2022-09-13T19:36:58.190Z,21.90
2022-09-13T19:39:46.778Z,21.80
2022-09-13T19:42:33.730Z,21.80
2022-09-13T19:45:22.779Z,21.80
2022-09-13T19:48:39.739Z,21.70
2022-09-13T19:51:19.941Z,21.60
2022-09-13T19:54:07.899Z,21.60
2022-09-13T19:56:55.091Z,21.50
2022-09-13T19:59:41.950Z,21.40
2022-09-13T20:02:30.229Z,21.40
2022-09-13T20:05:18.048Z,21.30
2022-09-13T20:08:05.405Z,21.30
2022-09-13T20:10:52.715Z,21.20
2022-09-13T20:13:40.275Z,21.20
2022-09-13T20:16:29.440Z,21.10
2022-09-13T20:22:27.746Z,21.00
2022-09-13T20:25:14.879Z,21.00
2022-09-13T20:28:02.107Z,20.90
2022-09-13T20:30:55.556Z,20.90
2022-09-13T20:33:43.240Z,20.80
2022-09-13T20:36:34.178Z,20.80
2022-09-13T20:39:21.012Z,20.70
2022-09-13T20:42:08.236Z,20.70
2022-09-13T20:44:55.356Z,20.60
2022-09-13T20:47:42.206Z,20.60
2022-09-13T20:50:28.992Z,20.60
2022-09-13T20:53:17.525Z,20.50
2022-09-13T20:56:04.903Z,20.50
2022-09-13T20:58:57.414Z,20.40
2022-09-13T21:01:45.224Z,20.40
2022-09-13T21:04:32.509Z,20.30
2022-09-13T21:07:33.529Z,20.30
2022-09-13T21:10:21.230Z,20.30
2022-09-13T21:13:07.182Z,20.20
2022-09-13T21:15:52.882Z,20.20
2022-09-13T21:18:41.463Z,20.20
2022-09-13T21:21:31.565Z,20.20
2022-09-13T21:24:18.734Z,20.20
2022-09-13T21:27:07.186Z,20.10
2022-09-13T21:29:54.313Z,20.10
2022-09-13T21:32:42.284Z,20.10
2022-09-13T21:35:29.354Z,20.10
2022-09-13T21:38:16.001Z,20.10
2022-09-13T21:41:05.277Z,20.10
2022-09-13T21:43:54.383Z,20.00
2022-09-13T21:46:42.406Z,20.00
2022-09-13T21:49:29.741Z,20.00
2022-09-13T21:52:16.981Z,20.00
2022-09-13T21:55:04.309Z,20.00
2022-09-13T21:57:52.137Z,20.00
2022-09-13T22:00:41.095Z,19.90
2022-09-13T22:03:27.991Z,19.90
2022-09-13T22:06:17.054Z,19.90
2022-09-13T22:09:07.589Z,19.90
2022-09-13T22:11:55.113Z,19.90
2022-09-13T22:14:41.844Z,19.90
2022-09-13T22:17:30.737Z,19.90
2022-09-13T22:20:17.997Z,19.90
2022-09-13T22:23:04.839Z,19.90
2022-09-13T22:25:53.158Z,19.90
2022-09-13T22:28:40.363Z,19.90
2022-09-13T22:31:30.367Z,19.90
2022-09-13T22:34:21.231Z,19.90
2022-09-13T22:37:08.338Z,19.90
2022-09-13T22:39:57.630Z,19.90
2022-09-13T22:42:44.673Z,20.00
2022-09-13T22:45:31.954Z,20.00
2022-09-13T22:48:19.175Z,20.00
2022-09-13T22:51:08.937Z,20.00
2022-09-13T22:53:56.876Z,20.00
2022-09-13T22:56:44.328Z,20.00
2022-09-13T22:59:31.086Z,20.00
2022-09-13T23:02:18.058Z,20.00
2022-09-13T23:05:05.480Z,20.00
2022-09-13T23:07:54.021Z,20.00
2022-09-13T23:10:40.940Z,20.00
2022-09-13T23:13:27.883Z,20.00
2022-09-13T23:16:18.294Z,20.00
2022-09-13T23:19:05.471Z,20.00
2022-09-13T23:21:54.892Z,20.00
2022-09-13T23:24:43.425Z,19.90
2022-09-13T23:27:31.327Z,19.90
2022-09-13T23:30:18.494Z,19.90
2022-09-13T23:33:06.091Z,19.90
2022-09-13T23:35:59.258Z,19.90
2022-09-13T23:38:50.227Z,19.90
2022-09-13T23:41:38.989Z,19.90
2022-09-13T23:44:27.397Z,19.90
2022-09-13T23:47:14.707Z,19.90
2022-09-13T23:50:01.572Z,19.90
2022-09-13T23:52:48.371Z,19.80
2022-09-13T23:55:35.478Z,19.80
2022-09-13T23:58:24.143Z,19.80
